Time;durP1;ratioP1;P1;durP2;ratioP2;P2;SDS_P1;SDS_P2;PMS_P1;PMS_P2;Temp;Humidity;BMP_temperature;BMP_pressure;BME280_temperature;BME280_humidity;BME280_pressure;Samples;Min_cycle;Max_cycle;Signal;HPM_P1;HPM_P2
2023/06/13 00:00:51;;;;;;;36.35;15.70;;;;;;;15.36;100.00;92141.19;4952869;29;20045;-75
2023/06/13 00:03:19;;;;;;;44.10;15.82;;;;;;;15.32;100.00;92132.38;4953208;29;20474;-75
2023/06/13 00:05:46;;;;;;;37.30;17.45;;;;;;;15.31;100.00;92128.19;4951177;28;20039;-75
2023/06/13 00:08:18;;;;;;;38.75;17.15;;;;;;;15.31;100.00;92124.78;4935810;29;20054;-76
2023/06/13 00:10:46;;;;;;;38.85;17.33;;;;;;;15.30;100.00;92131.91;4951427;29;20086;-75
2023/06/13 00:13:12;;;;;;;42.80;17.15;;;;;;;15.26;100.00;92119.69;4937498;29;20131;-75
2023/06/13 00:15:38;;;;;;;36.22;17.33;;;;;;;15.28;100.00;92113.00;4956600;28;20490;-75
2023/06/13 00:18:04;;;;;;;35.78;15.82;;;;;;;15.27;100.00;92116.00;4939466;29;20125;-75
2023/06/13 00:20:30;;;;;;;36.67;17.20;;;;;;;15.27;100.00;92116.00;4956227;29;20047;-75
2023/06/13 00:22:57;;;;;;;38.85;18.27;;;;;;;15.26;100.00;92112.56;4956696;29;20058;-75
2023/06/13 00:25:23;;;;;;;43.78;19.27;;;;;;;15.27;100.00;92116.00;4956599;28;20058;-75
2023/06/13 00:27:48;;;;;;;49.22;20.55;;;;;;;15.30;100.00;92115.31;4923798;29;20345;-75
2023/06/13 00:30:14;;;;;;;46.65;20.52;;;;;;;15.31;100.00;92116.84;4957003;29;20043;-75
2023/06/13 00:32:40;;;;;;;47.92;19.80;;;;;;;15.29;100.00;92119.84;4956333;29;20040;-75
2023/06/13 00:35:08;;;;;;;48.13;19.55;;;;;;;15.29;100.00;92119.03;4939371;29;20037;-75
2023/06/13 00:37:34;;;;;;;40.83;17.67;;;;;;;15.28;100.00;92117.53;4955281;29;20134;-75
2023/06/13 00:40:00;;;;;;;45.55;20.38;;;;;;;15.26;100.00;92114.44;4956605;29;20039;-75
2023/06/13 00:42:27;;;;;;;53.10;22.05;;;;;;;15.27;100.00;92105.44;4923820;29;20042;-75
2023/06/13 00:44:53;;;;;;;53.83;22.42;;;;;;;15.29;100.00;92108.50;4939279;29;20039;-75
2023/06/13 00:47:19;;;;;;;50.85;21.70;;;;;;;15.30;100.00;92112.69;4923283;29;20067;-75
2023/06/13 00:49:44;;;;;;;52.42;18.85;;;;;;;15.33;100.00;92117.31;4939114;29;20102;-75
2023/06/13 00:52:10;;;;;;;37.30;15.38;;;;;;;15.34;100.00;92117.00;4954361;29;20043;-75
2023/06/13 00:54:37;;;;;;;33.42;15.52;;;;;;;15.33;100.00;92114.66;4938615;29;20477;-75
2023/06/13 00:57:05;;;;;;;31.30;13.35;;;;;;;15.36;100.00;92116.69;4956342;29;20511;-75
2023/06/13 00:59:31;;;;;;;39.90;16.52;;;;;;;15.38;100.00;92117.13;4956240;29;20445;-75
2023/06/13 01:01:57;;;;;;;40.42;18.02;;;;;;;15.33;100.00;92109.41;4955805;29;20043;-75
2023/06/13 01:04:24;;;;;;;36.05;17.33;;;;;;;15.31;100.00;92107.09;4955617;28;20390;-75
2023/06/13 01:06:50;;;;;;;40.00;18.15;;;;;;;15.28;100.00;92120.16;4954778;29;20043;-75
2023/06/13 01:09:17;;;;;;;31.08;13.40;;;;;;;15.29;100.00;92116.41;4938898;29;20047;-75
2023/06/13 01:12:05;;;;;;;24.00;11.80;;;;;;;15.12;100.00;92115.47;4954776;29;20101;-75
2023/06/13 01:14:34;;;;;;;25.58;11.65;;;;;;;14.92;100.00;92110.97;4938833;29;20047;-75
2023/06/13 01:17:15;;;;;;;25.02;12.27;;;;;;;14.87;100.00;92109.31;4954229;29;20080;-75
2023/06/13 01:19:50;;;;;;;26.48;13.02;;;;;;;14.89;100.00;92109.00;4938659;29;20074;-75
2023/06/13 01:22:54;;;;;;;23.58;12.32;;;;;;;14.89;100.00;92109.75;4938543;29;20023;-75
2023/06/13 01:25:39;;;;;;;26.88;12.90;;;;;;;14.88;100.00;92110.88;4930014;29;20097;-75
2023/06/13 01:28:06;;;;;;;24.30;12.32;;;;;;;14.85;100.00;92114.13;4955378;29;20553;-75
2023/06/13 01:30:34;;;;;;;21.15;10.85;;;;;;;14.85;100.00;92105.44;4937950;29;20031;-74
2023/06/13 01:33:02;;;;;;;24.27;11.60;;;;;;;14.88;100.00;92107.44;4955453;29;20074;-75
2023/06/13 01:35:28;;;;;;;22.50;12.10;;;;;;;15.06;100.00;92111.47;4954022;28;20473;-75
2023/06/13 01:37:54;;;;;;;22.60;12.30;;;;;;;15.01;100.00;92108.28;4938289;29;20035;-75
2023/06/13 01:40:20;;;;;;;27.58;11.75;;;;;;;14.97;100.00;92105.50;4955439;29;20517;-75
2023/06/13 01:42:45;;;;;;;24.52;11.85;;;;;;;14.97;100.00;92102.88;4954025;29;20477;-75
2023/06/13 01:45:13;;;;;;;24.58;12.32;;;;;;;14.99;100.00;92100.69;4938118;29;20054;-75
2023/06/13 01:47:46;;;;;;;25.30;12.93;;;;;;;14.99;100.00;92101.47;4955324;29;20370;-75
2023/06/13 01:50:57;;;;;;;23.15;12.48;;;;;;;15.01;100.00;92097.75;4955134;29;20043;-75
2023/06/13 01:53:28;;;;;;;23.65;11.90;;;;;;;15.04;100.00;92092.59;4876724;29;20045;-75
2023/06/13 01:56:02;;;;;;;23.90;10.88;;;;;;;15.03;100.00;92091.03;4861326;29;20141;-75
2023/06/13 01:58:38;;;;;;;22.40;10.55;;;;;;;15.11;100.00;92094.72;4907593;29;20043;-75
2023/06/13 02:01:08;;;;;;;25.73;11.43;;;;;;;15.10;100.00;92096.56;4937786;29;20114;-75
2023/06/13 02:03:34;;;;;;;26.60;12.57;;;;;;;15.08;100.00;92093.47;4953546;29;20464;-75
2023/06/13 02:06:00;;;;;;;26.10;13.57;;;;;;;15.06;100.00;92085.13;4953455;28;20129;-75
2023/06/13 02:08:28;;;;;;;28.73;12.32;;;;;;;15.02;100.00;92084.25;4954733;29;20122;-75
2023/06/13 02:10:53;;;;;;;27.48;12.48;;;;;;;15.00;100.00;92083.78;4953294;29;20043;-75
2023/06/13 02:13:19;;;;;;;26.30;12.90;;;;;;;14.99;100.00;92087.50;4954542;29;20394;-75
2023/06/13 02:15:45;;;;;;;25.25;12.07;;;;;;;14.97;100.00;92082.56;4953535;28;20035;-75
2023/06/13 02:18:11;;;;;;;24.67;13.00;;;;;;;15.00;100.00;92081.16;4954063;29;20053;-75
2023/06/13 02:20:37;;;;;;;26.45;12.15;;;;;;;15.00;100.00;92081.16;4953239;29;20070;-75
2023/06/13 02:23:03;;;;;;;26.50;10.90;;;;;;;15.01;100.00;92080.06;4937497;29;20109;-75
2023/06/13 02:25:29;;;;;;;22.83;10.73;;;;;;;15.04;100.00;92082.06;4953207;28;20046;-75
2023/06/13 02:27:55;;;;;;;24.08;10.95;;;;;;;15.03;100.00;92082.38;4954395;29;20035;-75
2023/06/13 02:30:21;;;;;;;25.25;13.05;;;;;;;15.00;100.00;92070.63;4953473;29;20382;-75
2023/06/13 02:32:50;;;;;;;25.92;12.68;;;;;;;14.97;100.00;92073.88;4953713;29;20044;-75
2023/06/13 02:35:18;;;;;;;27.27;12.52;;;;;;;14.97;100.00;92079.16;4936591;29;20031;-75
2023/06/13 02:37:44;;;;;;;25.63;12.95;;;;;;;14.98;100.00;92072.81;4954260;29;20115;-75
2023/06/13 02:40:10;;;;;;;27.90;12.15;;;;;;;14.97;100.00;92071.25;4937221;29;20119;-75
2023/06/13 02:42:35;;;;;;;27.45;12.75;;;;;;;14.97;100.00;92069.41;4954524;29;20043;-75
2023/06/13 02:45:01;;;;;;;32.00;12.75;;;;;;;14.97;100.00;92069.41;4954226;28;20051;-75
2023/06/13 02:47:26;;;;;;;29.20;13.57;;;;;;;14.95;100.00;92070.78;4954560;29;20031;-75
2023/06/13 02:49:52;;;;;;;30.67;12.98;;;;;;;14.95;100.00;92070.78;4953719;29;20051;-75
2023/06/13 02:52:21;;;;;;;36.33;14.10;;;;;;;14.95;100.00;92074.22;4952876;29;20040;-75
2023/06/13 02:54:48;;;;;;;33.90;14.85;;;;;;;14.95;100.00;92078.69;4952628;28;20042;-75
2023/06/13 02:57:13;;;;;;;33.03;14.88;;;;;;;14.96;100.00;92074.97;4936910;29;20096;-75
2023/06/13 02:59:39;;;;;;;34.88;15.32;;;;;;;14.97;100.00;92076.50;4953698;29;20106;-75
2023/06/13 03:02:05;;;;;;;29.52;15.02;;;;;;;14.96;100.00;92080.25;4936629;29;20042;-75
2023/06/13 03:04:32;;;;;;;33.20;15.43;;;;;;;14.96;100.00;92067.06;4936567;29;20031;-75
2023/06/13 03:07:00;;;;;;;33.33;15.85;;;;;;;14.97;100.00;92076.50;4952172;29;20047;-75
2023/06/13 03:09:26;;;;;;;32.40;15.00;;;;;;;15.01;100.00;92077.41;4952522;29;20039;-75
2023/06/13 03:11:53;;;;;;;34.45;15.32;;;;;;;15.03;100.00;92075.22;4952291;29;20035;-75
2023/06/13 03:14:19;;;;;;;32.25;15.35;;;;;;;15.05;100.00;92078.31;4936917;29;20050;-75
2023/06/13 03:16:45;;;;;;;31.27;14.98;;;;;;;15.08;100.00;92079.53;4952729;29;20386;-75
2023/06/13 03:19:11;;;;;;;38.78;15.45;;;;;;;15.06;100.00;92079.09;4937117;29;20493;-75
2023/06/13 03:21:37;;;;;;;30.38;14.90;;;;;;;15.05;100.00;92078.31;4936184;29;20046;-75
2023/06/13 03:24:04;;;;;;;33.33;15.18;;;;;;;15.07;100.00;92086.69;4952105;28;20485;-75
2023/06/13 03:26:37;;;;;;;30.17;14.82;;;;;;;15.05;100.00;92088.84;4951843;29;20378;-75
2023/06/13 03:29:06;;;;;;;;;;;;;;;15.04;100.00;92097.09;4936730;29;20501;-75
2023/06/13 03:31:32;;;;;;;29.15;13.93;;;;;;;15.04;100.00;92092.59;4935828;29;19915;-75
2023/06/13 03:33:59;;;;;;;40.70;15.43;;;;;;;15.03;100.00;92091.03;4936075;28;20032;-75
2023/06/13 03:36:26;;;;;;;32.88;14.63;;;;;;;15.05;100.00;92088.84;4952935;29;20058;-75
2023/06/13 03:38:54;;;;;;;38.83;14.43;;;;;;;15.08;100.00;92087.44;4935237;29;20497;-75
2023/06/13 03:41:20;;;;;;;28.08;13.63;;;;;;;15.20;100.00;92085.63;4934512;29;20047;-75
2023/06/13 03:43:45;;;;;;;37.90;17.90;;;;;;;15.32;100.00;92097.31;4935350;29;20062;-75
2023/06/13 03:46:11;;;;;;;32.63;14.90;;;;;;;15.22;100.00;92089.81;4950835;28;20044;-75
2023/06/13 03:48:36;;;;;;;37.70;16.33;;;;;;;15.18;100.00;92093.09;4950726;28;20082;-75
2023/06/13 03:51:02;;;;;;;34.80;16.17;;;;;;;15.27;100.00;92100.16;4951677;29;20035;-75
2023/06/13 03:53:28;;;;;;;38.08;16.33;;;;;;;15.20;100.00;92101.44;4935311;29;20054;-75
2023/06/13 03:55:53;;;;;;;36.17;15.70;;;;;;;15.16;100.00;92111.09;4951032;28;20042;-75
2023/06/13 03:58:21;;;;;;;33.05;15.30;;;;;;;15.17;100.00;92110.00;4950904;29;20046;-74
2023/06/13 04:00:47;;;;;;;36.72;16.05;;;;;;;15.26;100.00;92119.69;4950735;29;20397;-74
2023/06/13 04:03:13;;;;;;;35.85;15.73;;;;;;;15.33;100.00;92114.66;4935063;29;20533;-75
2023/06/13 04:05:39;;;;;;;34.67;15.10;;;;;;;15.27;100.00;92119.38;4952674;28;20039;-75
2023/06/13 04:08:07;;;;;;;28.25;13.85;;;;;;;15.23;100.00;92128.28;4935266;29;20070;-75
2023/06/13 04:10:32;;;;;;;42.35;15.45;;;;;;;15.20;100.00;92122.53;4934931;29;20035;-75
2023/06/13 04:12:58;;;;;;;34.28;13.95;;;;;;;15.13;100.00;92127.56;4934957;29;20039;-75
2023/06/13 04:15:24;;;;;;;33.53;15.73;;;;;;;15.22;100.00;92135.41;4950905;28;20063;-75
2023/06/13 04:17:52;;;;;;;32.85;14.60;;;;;;;15.17;100.00;92127.69;4951386;29;20043;-75
2023/06/13 04:20:21;;;;;;;26.45;13.70;;;;;;;15.29;100.00;92129.59;4951814;29;20062;-79
2023/06/13 04:22:52;;;;;;;33.47;14.98;;;;;;;15.12;100.00;92139.19;4938005;29;20035;-76
2023/06/13 04:25:19;;;;;;;33.08;15.75;;;;;;;15.04;100.00;92137.41;4935383;29;20031;-76
2023/06/13 04:27:44;;;;;;;33.80;15.60;;;;;;;15.03;100.00;92143.00;4952934;29;20042;-77
2023/06/13 04:30:11;;;;;;;34.35;15.25;;;;;;;14.98;100.00;92144.72;4948699;29;20039;-76
2023/06/13 04:32:37;;;;;;;33.58;15.55;;;;;;;15.11;100.00;92145.56;4952173;29;20043;-76
2023/06/13 04:35:03;;;;;;;30.30;14.13;;;;;;;15.28;100.00;92147.28;4935483;29;20031;-78
2023/06/13 04:37:30;;;;;;;28.23;12.55;;;;;;;15.11;100.00;92156.13;4952476;29;20039;-79
2023/06/13 04:39:56;;;;;;;27.80;13.07;;;;;;;15.06;100.00;92145.75;4952026;29;20066;-77
2023/06/13 04:42:28;;;;;;;33.70;12.65;;;;;;;14.99;100.00;92150.75;4931453;29;20027;-77
2023/06/13 04:44:56;;;;;;;26.65;12.82;;;;;;;14.96;100.00;92148.78;4950039;28;20043;-76
2023/06/13 04:47:23;;;;;;;24.35;13.30;;;;;;;14.93;100.00;92146.78;4952033;29;20035;-77
2023/06/13 04:49:51;;;;;;;26.23;11.18;;;;;;;14.91;100.00;92146.34;4952449;29;20418;-78
2023/06/13 04:52:18;;;;;;;20.63;9.70;;;;;;;14.89;100.00;92153.78;4950565;29;20032;-76
2023/06/13 04:54:47;;;;;;;22.58;9.88;;;;;;;14.86;100.00;92151.78;4944838;29;20130;-76
2023/06/13 04:57:13;;;;;;;17.80;8.15;;;;;;;14.83;100.00;92150.56;4944465;29;20508;-76
2023/06/13 04:59:41;;;;;;;15.90;8.13;;;;;;;14.82;100.00;92156.94;4935027;29;20529;-76
2023/06/13 05:02:06;;;;;;;18.05;8.02;;;;;;;14.79;100.00;92149.66;4936199;29;20027;-76
2023/06/13 05:04:32;;;;;;;16.67;7.95;;;;;;;14.76;100.00;92156.34;4954679;28;20043;-77
2023/06/13 05:06:59;;;;;;;19.60;8.80;;;;;;;14.78;100.00;92154.16;4953543;29;20036;-76
2023/06/13 05:09:25;;;;;;;12.35;5.95;;;;;;;14.86;100.00;92157.06;4955223;29;20042;-76
2023/06/13 05:11:51;;;;;;;15.45;6.22;;;;;;;14.74;100.00;92161.16;4938533;29;20054;-76
2023/06/13 05:14:17;;;;;;;14.48;5.30;;;;;;;14.68;100.00;92157.19;4955582;28;20035;-76
2023/06/13 05:16:43;;;;;;;11.43;6.05;;;;;;;14.67;100.00;92154.84;4955772;29;20553;-77
2023/06/13 05:19:09;;;;;;;12.70;6.40;;;;;;;14.53;100.00;92160.31;4939056;29;20424;-77
2023/06/13 05:21:34;;;;;;;15.10;6.30;;;;;;;14.47;100.00;92158.94;4955619;29;20043;-76
2023/06/13 05:24:00;;;;;;;10.02;5.10;;;;;;;14.45;100.00;92164.53;4956268;28;20032;-76
2023/06/13 05:26:27;;;;;;;14.00;5.32;;;;;;;14.29;100.00;92172.19;4957743;29;20035;-79
2023/06/13 05:28:53;;;;;;;9.60;5.25;;;;;;;14.19;100.00;92164.66;4956873;29;20078;-78
2023/06/13 05:31:19;;;;;;;91.28;6.00;;;;;;;14.08;100.00;92171.34;4957034;29;20043;-78
2023/06/13 05:33:44;;;;;;;194.23;8.00;;;;;;;14.06;100.00;92173.53;4956986;29;20047;-78
2023/06/13 05:36:11;;;;;;;86.35;5.40;;;;;;;13.94;100.00;92171.56;4954884;28;20030;-78
2023/06/13 05:38:37;;;;;;;5.25;2.65;;;;;;;13.84;100.00;92170.00;4956097;29;20490;-77
2023/06/13 05:41:03;;;;;;;5.95;3.15;;;;;;;13.88;100.00;92170.16;4956691;29;20031;-77
2023/06/13 05:43:28;;;;;;;7.18;2.92;;;;;;;13.82;100.00;92174.81;4938616;29;20031;-77
2023/06/13 05:45:54;;;;;;;6.07;3.00;;;;;;;13.83;100.00;92173.72;4956386;28;20043;-77
2023/06/13 05:48:19;;;;;;;5.25;2.58;;;;;;;13.78;100.00;92175.75;4923619;29;20119;-76
2023/06/13 05:50:45;;;;;;;6.03;2.42;;;;;;;13.77;100.00;92169.72;4956212;29;20397;-77
2023/06/13 05:53:11;;;;;;;5.45;2.60;;;;;;;13.69;100.00;92162.59;4956731;29;20046;-78
2023/06/13 05:55:36;;;;;;;5.40;2.10;;;;;;;13.63;100.00;92169.13;4950947;28;20039;-77
2023/06/13 05:58:02;;;;;;;3.83;2.20;;;;;;;13.63;100.00;92163.88;4939355;29;20095;-77
2023/06/13 06:00:28;;;;;;;3.47;1.88;;;;;;;13.61;100.00;92173.94;4955747;29;20485;-77
2023/06/13 06:02:54;;;;;;;6.43;2.08;;;;;;;13.63;100.00;92174.41;4938880;29;20147;-77
2023/06/13 06:05:20;;;;;;;4.43;2.00;;;;;;;13.67;100.00;92177.94;4955379;28;20359;-77
2023/06/13 06:07:46;;;;;;;5.55;2.13;;;;;;;13.67;100.00;92183.97;4956107;29;20047;-77
2023/06/13 06:10:13;;;;;;;9.65;3.25;;;;;;;13.68;100.00;92176.84;4954404;28;20390;-77
2023/06/13 06:12:38;;;;;;;18.35;5.43;;;;;;;13.70;100.00;92182.56;4955159;29;20038;-78
2023/06/13 06:15:05;;;;;;;12.48;6.35;;;;;;;13.69;100.00;92183.66;4950516;28;20035;-78
2023/06/13 06:17:30;;;;;;;28.45;7.72;;;;;;;13.69;100.00;92189.69;4937700;29;20086;-77
2023/06/13 06:19:56;;;;;;;20.17;8.35;;;;;;;13.69;100.00;92189.69;4955057;29;20047;-77
2023/06/13 06:22:22;;;;;;;17.08;7.47;;;;;;;13.64;100.00;92197.72;4954280;29;20119;-77
2023/06/13 06:24:47;;;;;;;21.83;8.25;;;;;;;13.62;100.00;92199.13;4954541;28;20461;-77
2023/06/13 06:27:13;;;;;;;18.48;8.43;;;;;;;13.62;100.00;92204.41;4937698;29;20429;-77
2023/06/13 06:29:39;;;;;;;19.13;8.93;;;;;;;13.59;100.00;92199.75;4954911;29;20043;-77
2023/06/13 06:32:06;;;;;;;18.05;8.55;;;;;;;13.58;100.00;92212.16;4954636;29;20027;-77
2023/06/13 06:34:32;;;;;;;22.00;8.95;;;;;;;13.57;100.00;92209.81;4954358;28;20047;-77
2023/06/13 06:36:58;;;;;;;20.27;8.48;;;;;;;13.60;100.00;92202.09;4954300;29;20051;-76
2023/06/13 06:39:23;;;;;;;20.33;9.35;;;;;;;13.59;100.00;92210.28;4936949;29;20164;-77
2023/06/13 06:41:49;;;;;;;17.33;8.73;;;;;;;13.58;100.00;92213.97;4937247;29;20039;-77
2023/06/13 06:44:18;;;;;;;21.17;9.10;;;;;;;13.56;100.00;92218.81;4937069;29;20070;-76
2023/06/13 06:46:44;;;;;;;18.60;8.10;;;;;;;13.54;100.00;92211.22;4954255;29;20035;-76
2023/06/13 06:49:10;;;;;;;20.40;8.82;;;;;;;13.53;100.00;92220.97;4926811;29;20055;-77
2023/06/13 06:51:35;;;;;;;20.00;8.82;;;;;;;13.54;100.00;92208.59;4954407;29;20057;-77
2023/06/13 06:54:01;;;;;;;20.95;9.02;;;;;;;13.56;100.00;92210.91;4954203;28;20042;-77
2023/06/13 06:56:26;;;;;;;23.50;9.23;;;;;;;13.54;100.00;92214.63;4952607;29;20106;-77
2023/06/13 06:58:52;;;;;;;17.50;8.52;;;;;;;13.54;100.00;92217.25;4954230;29;20043;-77
2023/06/13 07:01:18;;;;;;;19.58;8.55;;;;;;;13.57;100.00;92217.72;4953855;29;20119;-78
2023/06/13 07:03:45;;;;;;;20.08;9.25;;;;;;;13.56;100.00;92222.19;4954326;29;20509;-77
2023/06/13 07:06:11;;;;;;;21.80;9.45;;;;;;;13.58;100.00;92221.88;4954266;28;20031;-77
2023/06/13 07:08:37;;;;;;;19.42;9.60;;;;;;;13.59;100.00;92220.81;4954196;29;20043;-77
2023/06/13 07:11:03;;;;;;;17.70;8.75;;;;;;;13.59;100.00;92218.94;4949163;29;20035;-77
2023/06/13 07:13:28;;;;;;;22.75;9.82;;;;;;;13.64;100.00;92224.03;4917919;29;20032;-77
2023/06/13 07:15:55;;;;;;;21.38;8.68;;;;;;;13.63;100.00;92227.75;4936737;29;20098;-76
2023/06/13 07:18:21;;;;;;;21.20;10.07;;;;;;;13.66;100.00;92215.84;4953621;29;20035;-76
2023/06/13 07:20:47;;;;;;;19.77;9.73;;;;;;;13.67;100.00;92220.03;4936865;29;20083;-76
2023/06/13 07:23:13;;;;;;;25.48;10.13;;;;;;;13.65;100.00;92230.84;4935900;29;20035;-76
2023/06/13 07:25:42;;;;;;;23.33;9.57;;;;;;;13.66;100.00;92229.00;4936617;29;20039;-76
2023/06/13 07:28:09;;;;;;;19.58;9.50;;;;;;;13.65;100.00;92224.84;4953779;29;20027;-77
2023/06/13 07:30:34;;;;;;;19.10;9.13;;;;;;;13.67;100.00;92223.44;4936772;29;20019;-76
2023/06/13 07:33:00;;;;;;;22.08;9.20;;;;;;;13.69;100.00;92228.34;4942953;29;20119;-77
2023/06/13 07:35:25;;;;;;;22.98;9.80;;;;;;;13.68;100.00;92216.31;4934993;29;20043;-77
2023/06/13 07:37:53;;;;;;;25.58;9.93;;;;;;;13.72;100.00;92222.50;4939946;29;20082;-76
2023/06/13 07:40:22;;;;;;;21.40;9.55;;;;;;;13.75;100.00;92224.50;4954206;29;20110;-76
2023/06/13 07:42:48;;;;;;;19.92;9.70;;;;;;;13.76;100.00;92220.78;4954002;29;20042;-77
2023/06/13 07:45:14;;;;;;;21.98;9.90;;;;;;;13.77;100.00;92217.06;4953556;28;20023;-77
2023/06/13 07:47:40;;;;;;;21.08;9.60;;;;;;;13.82;100.00;92219.53;4954700;29;20468;-77
2023/06/13 07:50:06;;;;;;;19.77;9.07;;;;;;;13.83;100.00;92217.69;4953214;29;20047;-78
2023/06/13 07:52:32;;;;;;;21.27;8.90;;;;;;;13.86;100.00;92215.19;4953173;29;20041;-77
2023/06/13 07:54:58;;;;;;;20.45;9.23;;;;;;;13.90;100.00;92210.09;4953334;28;20023;-78
2023/06/13 07:57:23;;;;;;;20.73;9.40;;;;;;;13.91;100.00;92201.88;4936251;29;20047;-77
2023/06/13 07:59:49;;;;;;;19.70;9.68;;;;;;;13.92;100.00;92208.69;4943154;29;20536;-77
2023/06/13 08:02:15;;;;;;;22.73;8.70;;;;;;;13.97;100.00;92206.97;4933974;29;20494;-77
2023/06/13 08:04:41;;;;;;;21.67;9.60;;;;;;;14.01;100.00;92207.91;4917237;29;20052;-77
2023/06/13 08:07:06;;;;;;;21.08;9.40;;;;;;;14.02;100.00;92204.19;4934030;29;20122;-77
2023/06/13 08:09:32;;;;;;;20.67;9.50;;;;;;;14.04;100.00;92200.13;4934159;29;20046;-77
2023/06/13 08:11:58;;;;;;;22.48;9.15;;;;;;;14.09;100.00;92207.09;4940091;29;20117;-77
2023/06/13 08:14:24;;;;;;;20.05;9.63;;;;;;;14.11;100.00;92205.69;4952821;28;20059;-77
2023/06/13 08:16:51;;;;;;;22.50;9.98;;;;;;;14.17;100.00;92208.94;4952141;29;20038;-76
2023/06/13 08:19:17;;;;;;;21.58;10.10;;;;;;;14.22;100.00;92206.13;4935166;29;20047;-77
2023/06/13 08:21:42;;;;;;;26.35;10.18;;;;;;;14.30;100.00;92202.72;4951865;29;20050;-77
2023/06/13 08:24:08;;;;;;;23.67;10.30;;;;;;;14.35;100.00;92202.53;4951245;28;20054;-77
2023/06/13 08:26:34;;;;;;;23.83;10.75;;;;;;;14.39;100.00;92205.31;4953000;29;20113;-77
2023/06/13 08:29:03;;;;;;;31.35;10.45;;;;;;;14.46;100.00;92205.59;4935371;29;20106;-77
2023/06/13 08:31:31;;;;;;;36.65;11.13;;;;;;;14.49;100.00;92210.22;4936339;29;20516;-78
2023/06/13 08:33:59;;;;;;;32.75;10.95;;;;;;;14.55;100.00;92208.22;4953996;28;20035;-77
2023/06/13 08:36:25;;;;;;;21.70;9.05;;;;;;;14.63;100.00;92207.38;4938630;29;20035;-77
2023/06/13 08:38:52;;;;;;;25.48;9.27;;;;;;;14.69;100.00;92202.72;4937616;29;20043;-78
2023/06/13 08:41:18;;;;;;;22.73;9.98;;;;;;;14.73;100.00;92204.41;4937453;29;20086;-77
2023/06/13 08:43:45;;;;;;;23.77;9.75;;;;;;;14.82;100.00;92201.72;4936356;29;20038;-77
2023/06/13 08:46:11;;;;;;;22.38;9.15;;;;;;;14.89;100.00;92212.53;4926402;29;20037;-77
2023/06/13 08:48:37;;;;;;;18.75;8.70;;;;;;;14.95;100.00;92205.19;4956367;29;20055;-77
2023/06/13 08:51:04;;;;;;;20.67;9.25;;;;;;;15.03;100.00;92208.88;4955779;29;20046;-78
2023/06/13 08:53:32;;;;;;;21.23;8.98;;;;;;;15.05;100.00;92204.84;4956758;29;20023;-77
2023/06/13 08:56:06;;;;;;;19.98;9.32;;;;;;;15.14;100.00;92202.91;4948720;28;20039;-77
2023/06/13 08:58:37;;;;;;;20.23;9.63;;;;;;;15.22;100.00;92205.81;4956451;29;20085;-77
2023/06/13 09:01:05;;;;;;;17.45;9.48;;;;;;;15.32;100.00;92203.56;4949900;29;20042;-77
2023/06/13 09:03:31;;;;;;;20.20;9.15;;;;;;;15.39;100.00;92203.06;4957222;29;20027;-77
2023/06/13 09:06:00;;;;;;;21.75;10.20;;;;;;;15.49;100.00;92207.94;4957945;28;20027;-77
2023/06/13 09:08:28;;;;;;;18.75;8.55;;;;;;;15.55;100.00;92204.00;4958331;29;20512;-77
2023/06/13 09:10:56;;;;;;;22.60;9.38;;;;;;;15.62;100.00;92206.13;4957530;29;20043;-77
2023/06/13 09:13:23;;;;;;;21.00;8.43;;;;;;;15.70;100.00;92209.78;4957381;29;20537;-77
2023/06/13 09:15:49;;;;;;;19.98;9.40;;;;;;;15.83;100.00;92208.78;4934495;29;20402;-77
2023/06/13 09:18:16;;;;;;;22.58;9.30;;;;;;;15.98;100.00;92213.41;4938985;29;20030;-77
2023/06/13 09:20:42;;;;;;;17.50;8.38;;;;;;;16.16;100.00;92205.34;4944240;29;20485;-78
2023/06/13 09:23:08;;;;;;;20.63;8.85;;;;;;;16.32;100.00;92205.47;4941783;29;20035;-78
2023/06/13 09:25:36;;;;;;;31.15;9.82;;;;;;;16.26;100.00;92204.13;4951957;28;20580;-77
2023/06/13 09:28:42;;;;;;;23.40;9.13;;;;;;;16.17;100.00;92205.00;4942842;29;20028;-78
2023/06/13 09:31:08;;;;;;;286.58;14.63;;;;;;;16.07;100.00;92205.41;4879326;29;20052;-78
2023/06/13 09:33:35;;;;;;;188.35;15.68;;;;;;;16.00;100.00;92200.66;4869750;29;20045;-79
2023/06/13 09:36:02;;;;;;;29.17;12.00;;;;;;;15.79;100.00;92203.38;4919726;29;20086;-79
2023/06/13 09:38:29;;;;;;;47.78;13.65;;;;;;;15.81;100.00;92201.19;4956124;29;20031;-78
2023/06/13 09:40:56;;;;;;;209.18;16.80;;;;;;;15.68;100.00;92204.84;4953199;29;20035;-78
2023/06/13 09:43:23;;;;;;;24.33;12.90;;;;;;;15.82;100.00;92201.94;4940434;29;20038;-79
2023/06/13 09:45:50;;;;;;;21.17;11.30;;;;;;;15.94;100.00;92202.00;4946984;28;20450;-78
2023/06/13 09:48:18;;;;;;;23.90;10.45;;;;;;;16.12;100.00;92201.81;4937127;29;20070;-79
2023/06/13 09:50:43;;;;;;;22.90;10.90;;;;;;;16.34;100.00;92196.13;4941036;29;20387;-79
2023/06/13 09:53:10;;;;;;;25.10;12.55;;;;;;;16.40;100.00;92200.09;4958512;29;20045;-79
2023/06/13 09:55:36;;;;;;;239.57;17.75;;;;;;;16.19;100.00;92196.78;4957769;28;20500;-78
2023/06/13 09:58:02;;;;;;;27.95;14.02;;;;;;;16.07;100.00;92194.84;4953550;29;20438;-79
2023/06/13 10:00:29;;;;;;;25.90;12.48;;;;;;;16.14;100.00;92196.97;4957947;29;20090;-78
2023/06/13 10:02:56;;;;;;;26.23;14.40;;;;;;;16.11;100.00;92195.00;4957211;29;20035;-78
2023/06/13 10:05:23;;;;;;;26.77;13.27;;;;;;;16.21;100.00;92184.00;4956072;28;20031;-79
2023/06/13 10:07:49;;;;;;;36.83;14.57;;;;;;;16.33;100.00;92185.91;4958458;29;20046;-79
2023/06/13 10:10:15;;;;;;;949.10;34.67;;;;;;;16.14;100.00;92178.47;4958425;29;20039;-79
2023/06/13 10:12:47;;;;;;;423.70;24.20;;;;;;;16.00;100.00;92179.56;4954285;29;20077;-79
2023/06/13 10:15:23;;;;;;;28.90;16.17;;;;;;;16.06;100.00;92182.00;4958019;28;20031;-78
2023/06/13 10:17:52;;;;;;;30.08;13.32;;;;;;;15.89;100.00;92183.69;4958175;29;20062;-78
2023/06/13 10:20:19;;;;;;;1682.15;48.15;;;;;;;15.92;100.00;92182.28;4935739;29;20600;-78
2023/06/13 10:22:45;;;;;;;634.60;27.67;;;;;;;15.66;100.00;92180.63;4944469;29;20050;-78
2023/06/13 10:25:14;;;;;;;60.22;14.80;;;;;;;15.79;100.00;92179.63;4921448;29;20044;-79
2023/06/13 10:27:46;;;;;;;31.33;15.27;;;;;;;15.68;100.00;92178.44;4938327;29;20078;-78
2023/06/13 10:30:17;;;;;;;30.23;14.23;;;;;;;15.53;100.00;92171.91;4947063;29;20035;-79
2023/06/13 10:32:55;;;;;;;31.48;15.77;;;;;;;15.43;100.00;92180.22;4951765;29;20040;-77
2023/06/13 10:35:38;;;;;;;42.38;15.15;;;;;;;15.41;100.00;92177.13;4956953;28;20121;-78
2023/06/13 10:38:55;;;;;;;46.25;16.70;;;;;;;15.23;100.00;92173.84;4957423;29;20636;-79
2023/06/13 10:41:37;;;;;;;44.72;19.20;;;;;;;15.36;100.00;92172.06;4936474;29;20054;-79
2023/06/13 10:44:27;;;;;;;;;;;;;;;15.39;100.00;92171.41;4956116;28;20027;-78
2023/06/13 10:46:53;;;;;;;25.10;13.10;;;;;;;15.58;100.00;92174.34;4957142;29;19914;-79
2023/06/13 10:49:18;;;;;;;31.65;12.90;;;;;;;15.66;100.00;92167.44;4956698;29;20129;-79
2023/06/13 10:51:45;;;;;;;24.50;13.60;;;;;;;15.87;100.00;92164.78;4956848;29;20445;-79
2023/06/13 10:54:13;;;;;;;27.30;13.55;;;;;;;16.06;100.00;92166.16;4940557;28;20041;-79
2023/06/13 10:56:41;;;;;;;22.83;11.95;;;;;;;16.27;100.00;92164.19;4951562;28;20026;-78
2023/06/13 10:59:09;;;;;;;23.58;12.63;;;;;;;16.47;100.00;92159.16;4956974;29;20043;-78
2023/06/13 11:01:39;;;;;;;21.55;11.27;;;;;;;16.75;100.00;92157.41;4956491;29;20036;-79
2023/06/13 11:04:08;;;;;;;20.35;10.85;;;;;;;16.83;100.00;92151.25;4948729;29;20038;-79
2023/06/13 11:06:34;;;;;;;19.58;10.43;;;;;;;16.93;100.00;92147.38;4936712;29;20035;-78
2023/06/13 11:09:09;;;;;;;23.20;11.50;;;;;;;17.02;100.00;92148.03;4956635;29;20039;-79
2023/06/13 11:11:42;;;;;;;17.60;10.23;;;;;;;17.11;100.00;92153.16;4956539;29;20045;-78
2023/06/13 11:14:07;;;;;;;19.40;10.77;;;;;;;17.31;100.00;92148.81;4955291;28;20099;-78